createdAt,value
2019-05-29T00:02:03.215Z,8.21
2019-05-29T00:04:32.682Z,8.14
2019-05-29T00:07:02.130Z,8.08
2019-05-29T00:09:31.520Z,8.02
2019-05-29T00:12:01.062Z,7.96
2019-05-29T00:14:30.424Z,7.89
2019-05-29T00:16:59.799Z,7.84
2019-05-29T00:19:29.185Z,7.77
2019-05-29T00:21:58.581Z,7.73
2019-05-29T00:24:28.160Z,7.68
2019-05-29T00:26:59.012Z,7.64
2019-05-29T00:29:28.425Z,7.60
2019-05-29T00:31:57.788Z,7.56
2019-05-29T00:34:27.179Z,7.53
2019-05-29T00:36:56.913Z,7.50
2019-05-29T00:39:26.291Z,7.47
2019-05-29T00:41:55.670Z,7.46
2019-05-29T00:44:34.319Z,7.41
2019-05-29T00:46:57.279Z,7.38
2019-05-29T00:49:26.923Z,7.34
2019-05-29T00:51:56.299Z,7.32
2019-05-29T00:54:25.683Z,7.27
2019-05-29T00:56:55.076Z,7.26
2019-05-29T00:59:24.541Z,7.22
2019-05-29T01:01:54.178Z,7.15
2019-05-29T01:04:23.621Z,7.10
2019-05-29T01:06:53.011Z,7.07
2019-05-29T01:09:22.362Z,7.03
2019-05-29T01:11:51.740Z,6.98
2019-05-29T01:14:21.522Z,6.93
2019-05-29T01:16:50.944Z,6.90
2019-05-29T01:22:07.782Z,6.82
2019-05-29T01:24:37.154Z,6.80
2019-05-29T01:27:06.714Z,6.78
2019-05-29T01:29:36.269Z,6.77
2019-05-29T01:32:05.645Z,6.74
2019-05-29T01:34:35.069Z,6.72
2019-05-29T01:37:04.417Z,6.70
2019-05-29T01:39:34.138Z,6.70
2019-05-29T01:42:03.828Z,6.67
2019-05-29T01:44:33.320Z,6.64
2019-05-29T01:47:02.641Z,6.61
2019-05-29T01:49:33.010Z,6.57
2019-05-29T01:52:02.568Z,6.55
2019-05-29T01:54:32.907Z,6.51
2019-05-29T01:57:02.333Z,6.51
2019-05-29T01:59:31.875Z,6.47
2019-05-29T02:02:01.252Z,6.45
2019-05-29T02:04:30.860Z,6.42
2019-05-29T02:07:01.235Z,6.40
2019-05-29T02:09:30.648Z,6.38
2019-05-29T02:12:00.102Z,6.37
2019-05-29T02:14:29.469Z,6.36
2019-05-29T02:16:59.152Z,6.34
2019-05-29T02:19:28.598Z,6.33
2019-05-29T02:21:58.052Z,6.29
2019-05-29T02:24:27.506Z,6.27
2019-05-29T02:26:56.881Z,6.25
2019-05-29T02:29:26.971Z,6.24
2019-05-29T02:31:57.304Z,6.19
2019-05-29T02:34:27.892Z,6.19
2019-05-29T02:36:57.751Z,6.17
2019-05-29T02:39:28.796Z,6.15
2019-05-29T02:41:58.906Z,6.10
2019-05-29T02:44:29.673Z,6.08
2019-05-29T02:46:59.161Z,6.06
2019-05-29T02:49:30.140Z,6.02
2019-05-29T02:52:00.818Z,5.96
2019-05-29T02:54:32.227Z,5.94
2019-05-29T02:57:01.497Z,5.92
2019-05-29T02:59:32.095Z,5.87
2019-05-29T03:02:01.781Z,5.82
2019-05-29T03:04:32.774Z,5.78
2019-05-29T03:07:02.417Z,5.74
2019-05-29T03:09:32.767Z,5.67
2019-05-29T03:12:02.556Z,5.63
2019-05-29T03:14:34.288Z,5.59
2019-05-29T03:17:03.303Z,5.58
2019-05-29T03:19:34.521Z,5.53
2019-05-29T03:22:04.134Z,5.49
2019-05-29T03:24:35.197Z,5.48
2019-05-29T03:27:04.978Z,5.47
2019-05-29T03:29:34.532Z,5.45
2019-05-29T03:32:04.050Z,5.46
2019-05-29T03:34:39.526Z,5.48
2019-05-29T03:37:04.487Z,5.46
2019-05-29T03:39:34.622Z,5.43
2019-05-29T03:42:04.073Z,5.41
2019-05-29T03:44:35.475Z,5.40
2019-05-29T03:47:05.759Z,5.39
2019-05-29T03:49:37.268Z,5.37
2019-05-29T03:52:06.602Z,5.37
2019-05-29T03:54:36.273Z,5.36
2019-05-29T03:57:05.694Z,5.38
2019-05-29T03:59:37.239Z,5.38
2019-05-29T04:02:06.273Z,5.40
2019-05-29T04:04:36.272Z,5.41
2019-05-29T04:07:06.714Z,5.45
2019-05-29T04:09:37.359Z,5.47
2019-05-29T04:12:06.745Z,5.49
2019-05-29T04:14:43.021Z,5.51
2019-05-29T04:17:14.418Z,5.55
2019-05-29T04:19:44.326Z,5.58
2019-05-29T04:22:16.997Z,5.62
2019-05-29T04:24:48.591Z,5.66
2019-05-29T04:27:20.118Z,5.71
2019-05-29T04:29:50.444Z,5.76
2019-05-29T04:32:19.827Z,5.82
2019-05-29T04:34:49.208Z,5.88
2019-05-29T04:37:18.587Z,5.95
2019-05-29T04:39:48.258Z,6.04
2019-05-29T04:42:17.637Z,6.11
2019-05-29T04:44:47.013Z,6.19
2019-05-29T04:47:16.372Z,6.29
2019-05-29T04:49:45.818Z,6.39
2019-05-29T04:52:15.476Z,6.49
2019-05-29T04:54:44.926Z,6.60
2019-05-29T04:57:15.260Z,6.73
2019-05-29T04:59:44.642Z,6.84
2019-05-29T05:02:14.035Z,6.99
2019-05-29T05:04:43.524Z,7.15
2019-05-29T05:07:12.897Z,7.32
2019-05-29T05:09:42.253Z,7.52
2019-05-29T05:12:12.201Z,7.67
2019-05-29T05:14:41.644Z,7.82
2019-05-29T05:17:25.256Z,7.98
2019-05-29T05:19:42.604Z,8.08
2019-05-29T05:22:12.171Z,8.26
2019-05-29T05:24:43.964Z,8.42
2019-05-29T05:27:13.040Z,8.56
2019-05-29T05:29:42.423Z,8.76
2019-05-29T05:32:11.802Z,8.94
2019-05-29T05:34:41.201Z,9.19
2019-05-29T05:37:10.576Z,9.43
2019-05-29T05:39:41.202Z,9.61
2019-05-29T05:42:10.597Z,9.91
2019-05-29T05:44:40.926Z,10.22
2019-05-29T05:47:11.982Z,10.61
2019-05-29T05:49:41.808Z,10.92
2019-05-29T05:52:12.460Z,11.22
2019-05-29T05:54:42.820Z,11.57
2019-05-29T05:57:12.210Z,11.83
2019-05-29T05:59:42.030Z,12.02
2019-05-29T06:02:11.493Z,12.33
2019-05-29T06:04:42.144Z,12.47
2019-05-29T06:07:11.642Z,12.59
2019-05-29T06:09:42.399Z,12.77
2019-05-29T06:12:11.868Z,13.05
2019-05-29T06:14:41.245Z,13.26
2019-05-29T06:17:10.801Z,13.35
2019-05-29T06:19:41.160Z,13.59
2019-05-29T06:22:10.613Z,13.91
2019-05-29T06:24:40.973Z,14.06
2019-05-29T06:27:10.507Z,14.17
2019-05-29T06:29:41.307Z,14.34
2019-05-29T06:32:11.204Z,14.36
2019-05-29T06:34:41.604Z,14.58
2019-05-29T06:37:11.065Z,14.74
2019-05-29T06:39:41.720Z,15.03
2019-05-29T06:42:11.279Z,15.25
2019-05-29T06:44:41.958Z,15.46
2019-05-29T06:47:11.835Z,15.46
2019-05-29T06:49:42.165Z,15.63
2019-05-29T06:52:11.652Z,15.56
2019-05-29T06:54:42.021Z,15.92
2019-05-29T06:57:11.827Z,16.35
2019-05-29T06:59:42.370Z,16.45
2019-05-29T07:02:13.040Z,16.63
2019-05-29T07:04:42.585Z,16.75
2019-05-29T07:07:11.908Z,17.13
2019-05-29T07:09:41.265Z,17.44
2019-05-29T07:12:10.746Z,17.23
2019-05-29T07:14:40.352Z,17.04
2019-05-29T07:17:09.787Z,17.39
2019-05-29T07:19:53.979Z,17.82
2019-05-29T07:22:10.747Z,17.58
2019-05-29T07:24:41.191Z,17.59
2019-05-29T07:27:13.424Z,17.80
2019-05-29T07:29:43.487Z,17.83
2019-05-29T07:32:12.938Z,18.28
2019-05-29T07:34:57.908Z,18.85
2019-05-29T07:37:13.472Z,18.66
2019-05-29T07:39:43.574Z,19.24
2019-05-29T07:42:13.113Z,19.17
2019-05-29T07:44:42.471Z,19.01
2019-05-29T07:47:12.007Z,19.12
2019-05-29T07:49:44.691Z,19.15
2019-05-29T07:52:12.557Z,19.42
2019-05-29T07:54:43.643Z,19.35
2019-05-29T07:57:13.303Z,19.80
2019-05-29T07:59:42.985Z,19.89
2019-05-29T08:02:12.624Z,20.41
2019-05-29T08:04:43.025Z,20.84
2019-05-29T08:07:12.554Z,21.12
2019-05-29T08:09:42.025Z,20.98
2019-05-29T08:12:11.563Z,20.72
2019-05-29T08:14:41.818Z,21.37
2019-05-29T08:17:12.576Z,21.95
2019-05-29T08:19:57.027Z,21.83
2019-05-29T08:22:13.429Z,22.58
2019-05-29T08:24:42.795Z,22.48
2019-05-29T08:27:13.146Z,22.45
2019-05-29T08:29:42.730Z,22.81
2019-05-29T08:32:12.081Z,22.89
2019-05-29T08:34:42.955Z,22.35
2019-05-29T08:37:12.490Z,22.90
2019-05-29T08:39:43.399Z,23.41
2019-05-29T08:42:23.117Z,23.35
2019-05-29T08:44:45.337Z,23.88
2019-05-29T08:47:14.743Z,24.15
2019-05-29T08:49:48.072Z,24.47
2019-05-29T08:52:15.222Z,24.77
2019-05-29T08:54:46.027Z,24.54
2019-05-29T08:57:15.615Z,24.19
2019-05-29T08:59:44.989Z,24.82
2019-05-29T09:02:14.363Z,24.64
2019-05-29T09:04:44.675Z,25.11
2019-05-29T09:07:14.365Z,25.62
2019-05-29T09:09:44.906Z,26.40
2019-05-29T09:12:15.320Z,26.72
2019-05-29T09:14:44.917Z,27.07
2019-05-29T09:17:14.679Z,27.66
2019-05-29T09:19:44.324Z,26.66
2019-05-29T09:22:14.848Z,26.66
2019-05-29T09:24:44.335Z,25.69
2019-05-29T09:27:14.551Z,26.08
2019-05-29T09:29:45.132Z,26.56
2019-05-29T09:32:15.334Z,26.73
2019-05-29T09:34:47.671Z,25.94
2019-05-29T09:37:17.765Z,26.75
2019-05-29T09:39:48.267Z,27.54
2019-05-29T09:42:19.149Z,27.51
2019-05-29T09:44:48.706Z,27.80
2019-05-29T09:47:19.002Z,27.96
2019-05-29T09:49:49.467Z,28.58
2019-05-29T09:52:18.854Z,28.79
2019-05-29T09:54:48.229Z,28.38
2019-05-29T09:57:18.061Z,27.48
2019-05-29T09:59:47.477Z,26.49
2019-05-29T10:02:16.849Z,26.17
2019-05-29T10:04:46.217Z,26.34
2019-05-29T10:07:15.787Z,26.68
2019-05-29T10:09:45.176Z,27.19
2019-05-29T10:12:14.593Z,26.72
2019-05-29T10:14:44.019Z,26.02
2019-05-29T10:17:13.590Z,26.35
2019-05-29T10:19:43.118Z,26.91
2019-05-29T10:22:12.598Z,26.56
2019-05-29T10:24:42.040Z,26.79
2019-05-29T10:27:11.415Z,26.51
2019-05-29T10:29:40.768Z,26.49
2019-05-29T10:32:10.171Z,26.81
2019-05-29T10:34:39.676Z,26.20
2019-05-29T10:37:09.334Z,25.75
2019-05-29T10:39:38.705Z,25.54
2019-05-29T10:42:08.126Z,25.40
2019-05-29T10:44:37.526Z,25.17
2019-05-29T10:47:06.988Z,24.80
2019-05-29T10:49:36.350Z,24.88
2019-05-29T10:52:15.580Z,26.13
2019-05-29T10:54:39.368Z,26.34
2019-05-29T10:57:08.797Z,26.88
2019-05-29T10:59:38.170Z,27.33
2019-05-29T11:02:08.060Z,27.40
2019-05-29T11:04:37.437Z,27.57
2019-05-29T11:07:06.986Z,26.98
2019-05-29T11:09:44.299Z,26.83
2019-05-29T11:12:07.514Z,26.28
2019-05-29T11:14:36.890Z,25.41
2019-05-29T11:17:06.316Z,25.04
2019-05-29T11:19:35.921Z,24.87
2019-05-29T11:22:24.854Z,25.55
2019-05-29T11:24:37.037Z,25.78
2019-05-29T11:27:06.469Z,25.43
2019-05-29T11:29:35.821Z,25.39
2019-05-29T11:32:05.318Z,25.47
2019-05-29T11:34:34.700Z,25.27
2019-05-29T11:37:04.249Z,25.18
2019-05-29T11:39:33.976Z,25.76
2019-05-29T11:42:03.345Z,26.97
2019-05-29T11:44:32.706Z,27.64
2019-05-29T11:47:02.805Z,28.07
2019-05-29T11:49:32.529Z,28.03
2019-05-29T11:52:21.421Z,28.12
2019-05-29T11:54:33.229Z,28.58
2019-05-29T11:57:03.296Z,28.76
2019-05-29T11:59:32.775Z,28.77
2019-05-29T12:02:03.353Z,29.05
2019-05-29T12:04:32.953Z,28.92
2019-05-29T12:07:02.544Z,28.97
2019-05-29T12:09:33.768Z,29.09
2019-05-29T12:12:03.367Z,28.43
2019-05-29T12:14:32.712Z,28.01
2019-05-29T12:17:02.784Z,28.30
2019-05-29T12:19:32.345Z,28.42
2019-05-29T12:22:02.753Z,28.50
2019-05-29T12:24:32.515Z,28.22
2019-05-29T12:27:02.750Z,27.93
2019-05-29T12:29:32.253Z,27.91
2019-05-29T12:32:03.879Z,27.97
2019-05-29T12:34:32.929Z,28.44
2019-05-29T12:37:03.727Z,28.32
2019-05-29T12:39:34.242Z,27.59
2019-05-29T12:42:04.004Z,27.86
2019-05-29T12:44:33.392Z,28.38
2019-05-29T12:47:04.377Z,29.08
2019-05-29T12:49:33.855Z,29.50
2019-05-29T12:52:07.459Z,29.48
2019-05-29T12:54:35.526Z,30.13
2019-05-29T12:57:06.267Z,30.31
2019-05-29T12:59:37.294Z,29.89
2019-05-29T13:02:07.386Z,29.38
2019-05-29T13:05:04.993Z,28.98
2019-05-29T13:07:08.100Z,29.30
2019-05-29T13:09:37.542Z,29.30
2019-05-29T13:12:06.935Z,29.44
2019-05-29T13:14:36.312Z,29.54
2019-05-29T13:17:05.819Z,30.00
2019-05-29T13:19:35.185Z,29.86
2019-05-29T13:22:06.228Z,29.62
2019-05-29T13:24:35.835Z,29.89
2019-05-29T13:27:06.140Z,29.20
2019-05-29T13:29:35.875Z,29.41
2019-05-29T13:32:07.316Z,28.98
2019-05-29T13:34:36.469Z,29.09
2019-05-29T13:37:08.028Z,29.40
2019-05-29T13:39:37.153Z,29.18
2019-05-29T13:42:10.918Z,28.84
2019-05-29T13:44:37.898Z,28.74
2019-05-29T13:47:08.485Z,28.47
2019-05-29T13:49:39.161Z,29.48
2019-05-29T13:52:12.184Z,29.48
2019-05-29T13:54:39.666Z,29.56
2019-05-29T13:57:09.045Z,28.93
2019-05-29T13:59:38.434Z,28.16
2019-05-29T14:02:08.750Z,27.84
2019-05-29T14:04:39.089Z,28.57
2019-05-29T14:07:08.933Z,29.51
2019-05-29T14:09:38.370Z,29.92
2019-05-29T14:12:09.189Z,30.09
2019-05-29T14:14:38.882Z,29.89
2019-05-29T14:17:08.792Z,28.95
2019-05-29T14:19:39.763Z,28.45
2019-05-29T14:22:09.328Z,28.57
2019-05-29T14:24:38.828Z,29.30
2019-05-29T14:27:09.516Z,29.98
2019-05-29T14:29:39.135Z,30.33
2019-05-29T14:32:09.218Z,30.95
2019-05-29T14:34:38.909Z,30.78
2019-05-29T14:37:09.880Z,30.01
2019-05-29T14:39:39.298Z,29.98
2019-05-29T14:42:10.163Z,30.18
2019-05-29T14:44:39.752Z,30.06
2019-05-29T14:47:10.204Z,29.65
2019-05-29T14:49:39.778Z,28.70
2019-05-29T14:52:09.170Z,29.20
2019-05-29T14:54:42.087Z,29.85
2019-05-29T14:57:24.526Z,29.74
2019-05-29T14:59:41.044Z,29.04
2019-05-29T15:02:19.860Z,28.23
2019-05-29T15:04:41.896Z,27.99
2019-05-29T15:07:12.061Z,27.83
2019-05-29T15:09:41.553Z,28.06
2019-05-29T15:12:11.910Z,28.03
2019-05-29T15:14:41.411Z,28.30
2019-05-29T15:17:11.070Z,28.69
2019-05-29T15:19:40.445Z,28.24
2019-05-29T15:22:11.529Z,28.13
2019-05-29T15:24:56.207Z,28.56
2019-05-29T15:27:12.160Z,28.98
2019-05-29T15:29:41.659Z,29.19
2019-05-29T15:32:12.401Z,28.73
2019-05-29T15:34:42.152Z,28.61
2019-05-29T15:37:13.683Z,28.64
2019-05-29T15:39:43.112Z,28.87
2019-05-29T15:42:14.933Z,28.78
2019-05-29T15:44:44.756Z,28.56
2019-05-29T15:47:14.967Z,27.57
2019-05-29T15:49:44.368Z,26.54
2019-05-29T15:52:15.130Z,26.15
2019-05-29T15:54:44.788Z,26.36
2019-05-29T15:57:15.204Z,25.86
2019-05-29T15:59:44.867Z,25.36
2019-05-29T16:02:15.642Z,25.05
2019-05-29T16:04:45.090Z,24.23
2019-05-29T16:07:16.072Z,23.72
2019-05-29T16:09:45.634Z,23.24
2019-05-29T16:12:15.032Z,22.97
2019-05-29T16:14:44.404Z,23.01
2019-05-29T16:17:13.772Z,22.82
2019-05-29T16:19:43.347Z,22.55
2019-05-29T16:22:12.720Z,22.36
2019-05-29T16:24:42.111Z,22.17
2019-05-29T16:27:12.150Z,22.11
2019-05-29T16:29:41.558Z,21.99
2019-05-29T16:32:11.626Z,21.87
2019-05-29T16:34:41.118Z,21.76
2019-05-29T16:37:11.203Z,21.60
2019-05-29T16:39:40.742Z,21.34
2019-05-29T16:42:10.197Z,21.11
2019-05-29T16:44:40.712Z,20.96
2019-05-29T16:47:10.073Z,20.90
2019-05-29T16:49:39.436Z,20.81
2019-05-29T16:52:10.344Z,20.77
2019-05-29T16:54:39.750Z,20.69
2019-05-29T16:57:09.335Z,20.58
2019-05-29T16:59:38.794Z,20.46
2019-05-29T17:02:08.150Z,20.39
2019-05-29T17:04:37.557Z,20.26
2019-05-29T17:07:06.903Z,20.19
2019-05-29T17:09:36.889Z,20.14
2019-05-29T17:12:06.847Z,20.13
2019-05-29T17:14:36.285Z,20.14
2019-05-29T17:17:05.668Z,20.04
2019-05-29T17:19:35.297Z,19.94
2019-05-29T17:22:05.652Z,19.76
2019-05-29T17:24:36.737Z,19.62
2019-05-29T17:27:06.480Z,19.49
2019-05-29T17:29:37.040Z,19.44
2019-05-29T17:32:06.608Z,19.41
2019-05-29T17:34:36.116Z,19.45
2019-05-29T17:37:05.772Z,19.46
2019-05-29T17:39:35.178Z,19.44
2019-05-29T17:42:04.685Z,19.44
2019-05-29T17:44:34.084Z,19.46
2019-05-29T17:47:03.801Z,19.50
2019-05-29T17:49:34.736Z,19.52
2019-05-29T17:52:04.396Z,19.49
2019-05-29T17:54:34.102Z,19.41
2019-05-29T17:57:03.940Z,19.39
2019-05-29T17:59:33.390Z,19.36
2019-05-29T18:02:03.028Z,19.33
2019-05-29T18:04:32.562Z,19.28
2019-05-29T18:07:01.963Z,19.20
2019-05-29T18:09:31.410Z,19.11
2019-05-29T18:12:00.803Z,19.00
2019-05-29T18:14:30.343Z,18.89
2019-05-29T18:16:59.965Z,18.79
2019-05-29T18:19:30.177Z,18.74
2019-05-29T18:21:59.598Z,18.71
2019-05-29T18:24:29.094Z,18.65
2019-05-29T18:26:59.320Z,18.61
2019-05-29T18:29:29.634Z,18.50
2019-05-29T18:31:59.240Z,18.42
2019-05-29T18:34:29.601Z,18.35
2019-05-29T18:36:59.137Z,18.28
2019-05-29T18:39:28.520Z,18.24
2019-05-29T18:41:57.997Z,18.19
2019-05-29T18:44:27.493Z,18.13
2019-05-29T18:46:56.875Z,18.11
2019-05-29T18:49:26.502Z,18.01
2019-05-29T18:52:00.073Z,17.95
2019-05-29T18:54:28.263Z,17.89
2019-05-29T18:57:14.533Z,17.82
2019-05-29T18:59:29.972Z,17.74
2019-05-29T19:01:59.491Z,17.65
2019-05-29T19:04:29.903Z,17.57
2019-05-29T19:06:59.409Z,17.49
2019-05-29T19:09:29.775Z,17.40
2019-05-29T19:11:59.332Z,17.32
2019-05-29T19:14:29.893Z,17.26
2019-05-29T19:16:59.403Z,17.20
2019-05-29T19:19:30.180Z,17.14
2019-05-29T19:21:59.589Z,17.07
2019-05-29T19:24:28.966Z,17.01
2019-05-29T19:26:58.335Z,16.96
2019-05-29T19:29:29.239Z,16.88
2019-05-29T19:31:58.690Z,16.84
2019-05-29T19:34:29.190Z,16.79
2019-05-29T19:36:59.085Z,16.77
2019-05-29T19:39:28.473Z,16.72
2019-05-29T19:41:57.955Z,16.67
2019-05-29T19:44:28.344Z,16.62
2019-05-29T19:46:58.004Z,16.58
2019-05-29T19:49:27.426Z,16.55
2019-05-29T19:51:56.772Z,16.51
2019-05-29T19:54:27.343Z,16.48
2019-05-29T19:56:56.817Z,16.45
2019-05-29T19:59:27.828Z,16.42
2019-05-29T20:01:57.395Z,16.38
2019-05-29T20:04:26.891Z,16.33
2019-05-29T20:06:56.259Z,16.28
2019-05-29T20:09:25.624Z,16.22
2019-05-29T20:11:55.030Z,16.21
2019-05-29T20:14:24.480Z,16.19
2019-05-29T20:16:53.952Z,16.11
2019-05-29T20:19:23.318Z,16.08
2019-05-29T20:21:52.695Z,16.01
2019-05-29T20:24:22.095Z,15.97
2019-05-29T20:26:51.445Z,15.92
2019-05-29T20:29:21.034Z,15.87
2019-05-29T20:31:50.401Z,15.83
2019-05-29T20:34:19.818Z,15.78
2019-05-29T20:36:49.196Z,15.73
2019-05-29T20:39:18.571Z,15.70
2019-05-29T20:41:48.137Z,15.71
2019-05-29T20:44:17.490Z,15.70
2019-05-29T20:46:46.866Z,15.70
2019-05-29T20:49:16.318Z,15.71
2019-05-29T20:51:45.698Z,15.68
2019-05-29T20:54:15.301Z,15.65
2019-05-29T20:56:44.742Z,15.64
2019-05-29T20:59:14.112Z,15.62
2019-05-29T21:01:47.058Z,15.63
2019-05-29T21:04:14.672Z,15.62
2019-05-29T21:06:44.236Z,15.62
2019-05-29T21:09:13.620Z,15.64
2019-05-29T21:11:43.674Z,15.67
2019-05-29T21:14:13.303Z,15.72
2019-05-29T21:16:43.951Z,15.77
2019-05-29T21:19:13.688Z,15.77
2019-05-29T21:21:43.059Z,15.76
2019-05-29T21:24:12.413Z,15.72
2019-05-29T21:26:43.131Z,15.70
2019-05-29T21:29:12.633Z,15.67
2019-05-29T21:31:42.158Z,15.64
2019-05-29T21:34:12.614Z,15.65
2019-05-29T21:36:42.235Z,15.64
2019-05-29T21:39:11.564Z,15.64
2019-05-29T21:41:42.495Z,15.63
2019-05-29T21:44:12.219Z,15.58
2019-05-29T21:46:42.974Z,15.56
2019-05-29T21:49:12.465Z,15.58
2019-05-29T21:51:41.825Z,15.62
2019-05-29T21:54:11.183Z,15.66
2019-05-29T21:56:41.606Z,15.69
2019-05-29T21:59:12.467Z,15.72
2019-05-29T22:01:42.101Z,15.76
2019-05-29T22:04:11.569Z,15.79
2019-05-29T22:06:40.984Z,15.82
2019-05-29T22:09:15.196Z,15.83
2019-05-29T22:11:44.307Z,15.83
2019-05-29T22:14:13.915Z,15.83
2019-05-29T22:16:43.278Z,15.84
2019-05-29T22:19:13.709Z,15.85
2019-05-29T22:21:43.258Z,15.84
2019-05-29T22:24:12.705Z,15.84
2019-05-29T22:26:42.388Z,15.81
2019-05-29T22:29:18.028Z,15.79
2019-05-29T22:31:43.112Z,15.76
2019-05-29T22:34:12.510Z,15.73
2019-05-29T22:36:41.942Z,15.67
2019-05-29T22:39:11.382Z,15.64
2019-05-29T22:41:40.760Z,15.58
2019-05-29T22:44:10.279Z,15.55
2019-05-29T22:46:39.782Z,15.51
2019-05-29T22:49:09.233Z,15.49
2019-05-29T22:51:38.614Z,15.51
2019-05-29T22:54:07.989Z,15.48
2019-05-29T22:56:37.458Z,15.48
2019-05-29T22:59:06.998Z,15.52
2019-05-29T23:01:36.377Z,15.52
2019-05-29T23:04:05.754Z,15.53
2019-05-29T23:06:35.128Z,15.52
2019-05-29T23:09:06.505Z,15.54
2019-05-29T23:11:35.960Z,15.57
2019-05-29T23:14:05.415Z,15.57
2019-05-29T23:16:34.804Z,15.60
2019-05-29T23:19:04.320Z,15.61
2019-05-29T23:21:33.947Z,15.62
2019-05-29T23:24:03.770Z,15.62
2019-05-29T23:26:33.233Z,15.63
2019-05-29T23:29:03.927Z,15.64
2019-05-29T23:31:33.476Z,15.62
2019-05-29T23:34:03.383Z,15.63
2019-05-29T23:36:32.810Z,15.64
2019-05-29T23:39:03.381Z,15.63
2019-05-29T23:41:32.817Z,15.63
2019-05-29T23:44:03.326Z,15.63
2019-05-29T23:46:33.178Z,15.62
2019-05-29T23:49:03.857Z,15.61
2019-05-29T23:51:34.615Z,15.60
2019-05-29T23:54:04.143Z,15.59
2019-05-29T23:56:33.516Z,15.58
2019-05-29T23:59:04.095Z,15.58
